Time;durP1;ratioP1;P1;durP2;ratioP2;P2;SDS_P1;SDS_P2;PMS_P1;PMS_P2;Temp;Humidity;BMP_temperature;BMP_pressure;BME280_temperature;BME280_humidity;BME280_pressure;Samples;Min_cycle;Max_cycle;Signal;HPM_P1;HPM_P2
2022/06/19 00:01:41;;;;;;;10.35;2.03;;;;;;;23.85;92.95;100866.31;4973475;29;20047;-59
2022/06/19 00:04:07;;;;;;;8.98;2.42;;;;;;;22.69;93.06;100866.31;4975012;28;20043;-59
2022/06/19 00:06:35;;;;;;;10.65;2.13;;;;;;;23.18;100.00;100870.25;4988479;28;20039;-60
2022/06/19 00:09:01;;;;;;;15.20;2.57;;;;;;;23.13;91.37;100864.78;4976532;28;20108;-60
2022/06/19 00:11:27;;;;;;;18.13;2.80;;;;;;;23.10;99.92;100861.81;4973122;28;20056;-60
2022/06/19 00:13:53;;;;;;;11.95;2.67;;;;;;;23.11;93.54;100871.63;4973832;28;20038;-57
2022/06/19 00:16:18;;;;;;;15.10;2.67;;;;;;;23.60;89.79;100876.31;4975077;28;20039;-60
2022/06/19 00:18:45;;;;;;;23.75;3.30;;;;;;;23.51;100.00;100874.47;4976493;28;20031;-60
2022/06/19 00:21:11;;;;;;;;;;;;;;;23.28;90.61;100874.84;4974093;28;20103;-60
2022/06/19 00:23:37;;;;;;;8.83;2.47;;;;;;;23.33;100.00;100876.72;4975586;28;19949;-60
2022/06/19 00:26:03;;;;;;;8.57;1.88;;;;;;;23.02;100.00;100874.94;4973938;28;20046;-59
2022/06/19 00:28:29;;;;;;;11.07;2.03;;;;;;;23.14;91.68;100871.06;4974313;28;20039;-60
2022/06/19 00:30:54;;;;;;;10.60;2.60;;;;;;;22.94;93.23;100866.50;4974098;28;20066;-59
2022/06/19 00:33:20;;;;;;;11.15;2.72;;;;;;;22.53;95.92;100867.44;4973567;28;20051;-60
2022/06/19 00:35:47;;;;;;;7.70;2.15;;;;;;;23.84;92.66;100864.69;4977652;28;20063;-60
2022/06/19 00:38:13;;;;;;;15.97;3.13;;;;;;;22.73;88.46;100855.69;4973877;28;20047;-59
2022/06/19 00:40:39;;;;;;;;;;;;;;;22.75;100.00;100862.47;4974370;28;20044;-59
2022/06/19 00:43:05;;;;;;;10.87;2.27;;;;;;;22.54;91.83;100866.34;4998699;28;19926;-59
2022/06/19 00:45:40;;;;;;;;;;;;;;;22.59;96.24;100855.44;4974147;28;20119;-58
2022/06/19 00:48:36;;;;;;;10.13;2.47;;;;;;;22.54;96.68;100850.00;4973972;28;19914;-59
2022/06/19 00:51:05;;;;;;;11.93;2.30;;;;;;;22.41;99.32;100848.63;4973559;28;20057;-58
2022/06/19 00:53:40;;;;;;;12.23;2.30;;;;;;;22.54;100.00;100841.81;4973342;29;20081;-60
2022/06/19 00:56:11;;;;;;;10.00;2.17;;;;;;;22.32;92.22;100842.94;4972044;28;20050;-59
2022/06/19 00:58:40;;;;;;;11.83;2.13;;;;;;;22.36;99.89;100838.56;4974666;28;20067;-60
2022/06/19 01:01:11;;;;;;;9.53;2.30;;;;;;;22.68;92.80;100825.72;4973827;28;20035;-59
2022/06/19 01:03:39;;;;;;;13.57;2.60;;;;;;;22.29;97.78;100835.31;4973372;29;20043;-59
2022/06/19 01:06:05;;;;;;;10.33;2.37;;;;;;;22.38;90.91;100860.91;5012376;28;20035;-60
2022/06/19 01:08:31;;;;;;;;;;;;;;;23.09;100.00;100920.19;4973693;29;20061;-59
2022/06/19 01:10:58;;;;;;;7.80;1.90;;;;;;;23.14;100.00;101008.25;4973590;28;19970;-60
2022/06/19 01:13:27;;;;;;;;;;;;;;;22.69;100.00;101046.22;4975348;28;20046;-59
2022/06/19 01:15:53;;;;;;;9.53;1.97;;;;;;;23.06;100.00;101011.56;4973980;28;19925;-60
2022/06/19 01:18:20;;;;;;;14.25;2.85;;;;;;;23.06;100.00;100976.91;4974342;28;20087;-59
2022/06/19 01:20:46;;;;;;;7.67;1.50;;;;;;;22.55;100.00;100964.19;4973268;29;20031;-60
2022/06/19 01:23:31;;;;;;;7.22;2.17;;;;;;;22.83;96.01;100972.03;4972950;28;20305;-58
2022/06/19 01:25:57;;;;;;;16.20;2.70;;;;;;;22.84;86.79;100947.25;4974851;28;20299;-60
2022/06/19 01:31:20;;;;;;;15.60;2.90;;;;;;;22.80;86.06;100912.63;4971855;28;20051;-59
2022/06/19 01:33:57;;;;;;;14.57;2.37;;;;;;;22.87;100.00;100907.72;4976734;28;20039;-60
2022/06/19 01:36:25;;;;;;;11.10;2.50;;;;;;;22.92;88.65;100913.94;4974815;28;20043;-60
2022/06/19 01:38:53;;;;;;;15.80;2.33;;;;;;;22.62;100.00;100929.28;4994047;28;20045;-59
2022/06/19 01:41:28;;;;;;;13.77;2.43;;;;;;;23.02;98.93;100940.38;4973027;28;20036;-59
2022/06/19 01:43:53;;;;;;;14.63;3.10;;;;;;;22.63;84.91;100935.56;4969237;28;20874;-59
2022/06/19 01:46:19;;;;;;;24.50;2.50;;;;;;;22.84;83.31;100941.78;4977604;28;20078;-59
2022/06/19 01:48:45;;;;;;;13.85;2.40;;;;;;;22.60;94.17;100938.81;4990500;28;20042;-59
2022/06/19 01:51:12;;;;;;;10.20;1.83;;;;;;;22.74;80.15;100947.28;4974459;28;20050;-61
2022/06/19 01:53:48;;;;;;;12.80;2.08;;;;;;;22.58;75.39;100949.19;4971544;28;20035;-60
2022/06/19 01:56:14;;;;;;;9.45;1.83;;;;;;;23.02;90.68;100953.22;5000885;28;20103;-60
2022/06/19 01:58:43;;;;;;;15.95;2.10;;;;;;;22.74;84.69;100948.09;4972541;29;20027;-60
2022/06/19 02:01:10;;;;;;;12.27;2.40;;;;;;;22.51;100.00;100952.22;4975914;28;20035;-60
2022/06/19 02:03:45;;;;;;;11.82;2.03;;;;;;;22.79;100.00;100971.78;4971418;28;20027;-59
2022/06/19 02:06:13;;;;;;;12.97;2.20;;;;;;;22.54;88.83;100987.09;4972670;28;20038;-61
2022/06/19 02:08:40;;;;;;;7.93;1.77;;;;;;;22.65;100.00;100960.63;4975198;28;20043;-60
2022/06/19 02:11:06;;;;;;;9.07;1.80;;;;;;;22.88;100.00;100961.16;4972941;28;20035;-59
2022/06/19 02:13:34;;;;;;;7.43;1.67;;;;;;;22.70;100.00;100976.97;4972439;28;20038;-59
2022/06/19 02:16:04;;;;;;;7.73;1.60;;;;;;;22.48;88.60;100980.81;4972515;29;20054;-61
2022/06/19 02:18:35;;;;;;;14.47;2.30;;;;;;;22.83;100.00;100982.94;4972122;29;20035;-60
2022/06/19 02:21:02;;;;;;;7.60;1.97;;;;;;;22.49;94.55;100968.00;4972374;29;20034;-60
2022/06/19 02:23:33;;;;;;;5.10;1.20;;;;;;;22.62;100.00;100951.09;4997337;28;20043;-60
2022/06/19 02:26:00;;;;;;;12.80;1.63;;;;;;;22.31;90.47;100969.31;4972226;28;20031;-59
2022/06/19 02:28:27;;;;;;;7.17;1.50;;;;;;;22.49;94.81;100985.16;4972296;28;20036;-60
2022/06/19 02:30:53;;;;;;;12.30;2.13;;;;;;;22.43;93.63;100974.50;4972213;29;20035;-60
2022/06/19 02:33:23;;;;;;;16.65;1.80;;;;;;;22.26;86.05;100982.94;4972212;29;20062;-60
2022/06/19 02:35:49;;;;;;;13.97;2.13;;;;;;;23.02;100.00;101008.56;4972234;29;20031;-59
2022/06/19 02:38:18;;;;;;;6.50;1.23;;;;;;;23.10;85.16;101023.53;4999542;28;20035;-60
2022/06/19 02:40:58;;;;;;;5.87;1.70;;;;;;;22.58;97.49;100993.63;4970134;28;20046;-60
2022/06/19 02:43:27;;;;;;;5.47;1.17;;;;;;;22.36;88.83;100974.78;4972110;29;20067;-60
2022/06/19 02:45:53;;;;;;;7.30;1.90;;;;;;;21.98;79.83;100957.84;5005970;28;20050;-60
2022/06/19 02:48:21;;;;;;;;;;;;;;;21.82;100.00;100929.78;4972730;28;20039;-60
2022/06/19 02:50:47;;;;;;;12.30;1.40;;;;;;;21.80;84.21;100924.59;4971959;28;19914;-60
2022/06/19 02:53:13;;;;;;;13.93;1.40;;;;;;;21.50;86.06;100934.31;4972168;29;20374;-60
2022/06/19 02:55:40;;;;;;;10.10;1.90;;;;;;;22.15;99.07;100942.09;4972022;29;20039;-60
2022/06/19 02:58:06;;;;;;;5.27;1.20;;;;;;;21.99;100.00;100992.16;4973808;28;20031;-60
2022/06/19 03:00:31;;;;;;;;;;;;;;;;;;4972123;28;20094;-59
2022/06/19 03:03:05;;;;;;;9.98;1.17;;;;;;;22.35;84.89;101114.81;4971826;29;19923;-59
2022/06/19 03:05:31;;;;;;;7.20;1.77;;;;;;;22.44;93.38;101096.03;5001185;28;20039;-60
2022/06/19 03:07:57;;;;;;;8.35;1.52;;;;;;;22.20;89.25;101040.16;4975267;29;20303;-60
2022/06/19 03:10:23;;;;;;;;;;;;;;;22.12;93.08;101020.78;4975607;28;20039;-61
2022/06/19 03:12:49;;;;;;;5.47;1.60;;;;;;;22.16;87.43;101010.97;4997025;28;20021;-60
2022/06/19 03:15:15;;;;;;;5.60;1.50;;;;;;;22.06;87.15;101000.88;4975247;29;20039;-60
2022/06/19 03:17:41;;;;;;;12.15;2.08;;;;;;;22.33;93.15;100997.09;4975348;29;20044;-60
2022/06/19 03:20:11;;;;;;;7.63;1.60;;;;;;;22.34;84.15;100979.69;4974958;28;20039;-60
2022/06/19 03:22:36;;;;;;;6.07;2.00;;;;;;;21.90;100.00;100960.00;4975082;29;20031;-60
2022/06/19 03:25:02;;;;;;;6.15;1.95;;;;;;;21.68;89.75;100971.13;4975189;28;20042;-60
2022/06/19 03:27:28;;;;;;;7.70;2.22;;;;;;;22.16;100.00;101014.53;4975070;29;20042;-60
2022/06/19 03:29:54;;;;;;;24.35;2.65;;;;;;;22.04;74.31;101030.28;4974804;29;20034;-60
2022/06/19 03:32:19;;;;;;;15.90;2.40;;;;;;;21.56;81.93;101012.13;4986990;28;20055;-61
2022/06/19 03:34:44;;;;;;;20.83;2.20;;;;;;;21.49;74.67;100992.53;4974802;29;20114;-61
2022/06/19 03:37:10;;;;;;;22.65;2.08;;;;;;;21.36;93.55;100963.91;4974849;29;20295;-60
2022/06/19 03:39:36;;;;;;;17.05;2.17;;;;;;;21.28;80.11;100943.47;4974475;29;20111;-60
2022/06/19 03:42:04;;;;;;;14.02;2.10;;;;;;;21.22;87.14;100917.34;4976476;28;20057;-60
2022/06/19 03:44:29;;;;;;;8.27;2.10;;;;;;;21.26;90.45;100899.41;5002307;28;20031;-60
2022/06/19 03:46:55;;;;;;;9.32;1.52;;;;;;;21.28;87.62;100856.44;4974772;28;20058;-61
2022/06/19 03:49:20;;;;;;;14.05;1.75;;;;;;;21.25;92.71;100886.88;5001982;28;20035;-60
2022/06/19 03:51:47;;;;;;;;;;;;;;;21.05;100.00;100907.47;4975046;29;20027;-60
2022/06/19 03:54:12;;;;;;;5.57;1.37;;;;;;;21.31;100.00;100869.50;5000131;28;19924;-61
2022/06/19 03:56:39;;;;;;;5.45;0.90;;;;;;;22.08;91.35;100895.22;4974603;29;20047;-60
2022/06/19 03:59:07;;;;;;;11.02;1.52;;;;;;;22.30;88.70;100894.13;4974332;29;20047;-60
2022/06/19 04:01:36;;;;;;;10.27;2.13;;;;;;;21.78;89.18;100885.97;4974214;29;20019;-60
2022/06/19 04:04:04;;;;;;;9.47;1.40;;;;;;;21.15;83.45;100884.13;4972530;28;20096;-60
2022/06/19 04:06:34;;;;;;;14.13;2.30;;;;;;;20.75;88.25;100859.97;4991344;28;20284;-61
2022/06/19 04:09:01;;;;;;;6.60;1.43;;;;;;;20.87;88.26;100854.34;4974455;28;20276;-61
2022/06/19 04:11:28;;;;;;;8.90;1.47;;;;;;;21.00;89.01;100858.50;4974397;28;20307;-61
2022/06/19 04:13:54;;;;;;;15.40;2.03;;;;;;;20.76;96.05;100820.88;4974176;29;20299;-60
2022/06/19 04:16:22;;;;;;;12.55;1.80;;;;;;;20.64;100.00;100798.53;4974042;29;20273;-61
2022/06/19 04:18:49;;;;;;;7.07;1.30;;;;;;;20.66;100.00;100752.88;4973472;28;20047;-60
2022/06/19 04:21:19;;;;;;;4.63;1.13;;;;;;;20.57;97.73;100728.13;4972786;28;20039;-60
2022/06/19 04:23:46;;;;;;;8.33;1.30;;;;;;;20.57;81.37;100708.31;4973714;29;20293;-62
2022/06/19 04:26:14;;;;;;;12.27;1.70;;;;;;;20.68;92.34;100696.38;4972111;28;20369;-61
2022/06/19 04:28:41;;;;;;;5.73;1.00;;;;;;;21.00;98.31;100710.91;4974124;29;20031;-60
2022/06/19 04:31:07;;;;;;;8.93;1.60;;;;;;;20.81;85.04;100735.03;4973857;28;20269;-59
2022/06/19 04:33:37;;;;;;;8.82;2.08;;;;;;;20.81;78.69;100722.25;4935385;29;20044;-61
2022/06/19 04:36:03;;;;;;;7.97;1.60;;;;;;;20.76;80.58;100704.03;4935707;29;20043;-60
2022/06/19 04:38:29;;;;;;;8.52;1.52;;;;;;;20.56;83.18;100679.50;4935432;29;20279;-61
2022/06/19 04:40:56;;;;;;;11.50;1.60;;;;;;;20.65;88.61;100661.59;4935677;29;20047;-60
2022/06/19 04:43:22;;;;;;;8.38;1.33;;;;;;;20.66;81.11;100657.00;4935276;29;20294;-60
2022/06/19 04:45:47;;;;;;;;;;;;;;;22.15;77.81;100677.94;4935976;29;20100;-61
2022/06/19 04:48:13;;;;;;;9.67;1.87;;;;;;;21.09;76.70;100675.84;4934791;28;19919;-61
2022/06/19 04:50:40;;;;;;;7.83;1.50;;;;;;;21.81;67.63;100675.84;4935540;29;20028;-60
2022/06/19 04:53:06;;;;;;;5.93;1.20;;;;;;;21.82;69.97;100677.47;4935303;29;20255;-61
2022/06/19 04:55:33;;;;;;;8.07;1.88;;;;;;;21.29;75.69;100656.81;4935456;29;20273;-60
2022/06/19 04:58:01;;;;;;;4.85;1.23;;;;;;;20.93;75.97;100640.47;4950424;29;20035;-60
2022/06/19 05:00:26;;;;;;;9.27;1.60;;;;;;;20.92;77.65;100649.72;4935363;29;20043;-61
2022/06/19 05:02:52;;;;;;;11.63;1.95;;;;;;;21.02;78.12;100665.22;4935175;29;20036;-60
2022/06/19 05:05:19;;;;;;;6.88;2.45;;;;;;;20.98;77.15;100681.25;4935536;29;20044;-61
2022/06/19 05:07:45;;;;;;;10.33;2.43;;;;;;;21.14;76.52;100746.53;4935085;29;20032;-60
2022/06/19 05:10:11;;;;;;;;;;;;;;;21.12;79.05;100774.00;4935906;28;20036;-59
2022/06/19 05:12:37;;;;;;;7.77;1.57;;;;;;;21.25;85.31;100797.16;4935108;28;19946;-61
2022/06/19 05:15:04;;;;;;;7.00;1.98;;;;;;;21.63;85.64;100835.81;4935252;29;20024;-59
2022/06/19 05:17:30;;;;;;;8.10;2.10;;;;;;;22.10;93.74;100875.91;4935141;29;20032;-60
2022/06/19 05:19:56;;;;;;;;;;;;;;;22.16;78.16;100926.56;4935537;29;20058;-60
2022/06/19 05:22:22;;;;;;;5.13;1.00;;;;;;;21.94;98.16;100935.00;4934845;29;19946;-60
2022/06/19 05:24:47;;;;;;;5.78;1.15;;;;;;;22.14;73.73;100906.94;4934857;29;20039;-61
2022/06/19 05:27:13;;;;;;;7.15;1.75;;;;;;;22.42;68.18;100883.78;4949974;29;20115;-60
2022/06/19 05:29:39;;;;;;;10.65;4.30;;;;;;;22.62;63.17;100869.34;4935069;29;20036;-61
2022/06/19 05:32:06;;;;;;;9.17;2.77;;;;;;;22.48;74.85;100873.72;4949659;29;20088;-61
2022/06/19 05:34:32;;;;;;;7.28;2.40;;;;;;;22.75;76.08;100872.59;4973304;28;20035;-60
2022/06/19 05:36:59;;;;;;;10.40;2.37;;;;;;;22.75;73.19;100895.19;4973260;28;20031;-60
2022/06/19 05:39:24;;;;;;;6.45;1.98;;;;;;;22.66;77.71;100902.31;4973174;29;20050;-59
2022/06/19 05:41:52;;;;;;;5.00;1.60;;;;;;;22.44;84.99;100889.78;4972874;29;20560;-61
2022/06/19 05:44:18;;;;;;;8.40;1.37;;;;;;;22.39;86.47;100903.41;4973008;28;20105;-61
2022/06/19 05:46:47;;;;;;;8.40;2.73;;;;;;;22.62;81.44;100898.50;4970429;28;20097;-59
2022/06/19 05:49:13;;;;;;;9.77;2.10;;;;;;;23.01;84.89;100903.28;4973059;29;20105;-61
2022/06/19 05:51:39;;;;;;;11.60;2.50;;;;;;;22.97;81.14;100891.31;4973199;28;20047;-60
2022/06/19 05:54:05;;;;;;;9.38;2.83;;;;;;;23.09;80.95;100898.38;4974555;28;20098;-60
2022/06/19 05:56:31;;;;;;;11.00;2.90;;;;;;;22.76;83.54;100915.09;4970514;28;20046;-60
2022/06/19 05:58:57;;;;;;;8.40;1.73;;;;;;;23.12;75.44;100927.81;4972769;29;20067;-60
2022/06/19 06:01:24;;;;;;;10.57;2.33;;;;;;;23.33;85.06;100912.19;4972787;28;20042;-61
2022/06/19 06:03:50;;;;;;;8.33;3.17;;;;;;;23.05;76.58;100896.19;4972474;29;20065;-61
2022/06/19 06:06:22;;;;;;;10.40;3.30;;;;;;;23.19;74.12;100892.88;4972676;29;20067;-61
2022/06/19 06:08:48;;;;;;;4.90;1.17;;;;;;;23.36;91.45;100900.72;4971504;28;20039;-60
2022/06/19 06:11:14;;;;;;;;;;;;;;;23.26;83.77;100908.97;4999899;28;20038;-61
2022/06/19 06:13:41;;;;;;;8.20;2.33;;;;;;;23.06;81.10;100927.81;4972839;28;19914;-61
2022/06/19 06:16:07;;;;;;;;;;;;;;;22.57;77.38;100953.84;4973161;28;20052;-61
2022/06/19 06:18:33;;;;;;;11.73;1.73;;;;;;;22.23;78.24;100992.47;4972210;29;19940;-60
2022/06/19 06:21:01;;;;;;;7.13;1.90;;;;;;;21.79;88.54;101015.53;4972546;29;20031;-61
2022/06/19 06:23:28;;;;;;;9.33;2.47;;;;;;;22.02;100.00;101007.97;4974225;28;20035;-60
2022/06/19 06:26:18;;;;;;;9.60;1.93;;;;;;;22.76;93.45;100988.72;4972645;28;20042;-61
2022/06/19 06:28:46;;;;;;;7.07;1.70;;;;;;;22.61;93.95;101003.16;4970649;28;20031;-61
2022/06/19 06:31:13;;;;;;;12.10;2.00;;;;;;;23.03;92.97;101023.81;4972294;28;20035;-60
2022/06/19 06:33:39;;;;;;;13.83;2.50;;;;;;;22.51;100.00;101052.19;4972253;28;20406;-61
2022/06/19 06:36:05;;;;;;;;;;;;;;;22.33;100.00;101055.16;4972841;28;20067;-61
2022/06/19 06:38:31;;;;;;;5.73;1.70;;;;;;;22.71;100.00;101068.56;4972137;29;19918;-60
2022/06/19 06:40:57;;;;;;;;;;;;;;;22.91;100.00;101092.28;4972243;28;20063;-61
2022/06/19 06:43:23;;;;;;;17.00;3.13;;;;;;;22.66;100.00;101109.47;4972132;28;19919;-61
2022/06/19 06:45:48;;;;;;;;;;;;;;;22.58;100.00;101118.97;4972581;28;20043;-60
2022/06/19 06:48:15;;;;;;;16.10;4.00;;;;;;;23.10;100.00;101107.28;4972180;29;19981;-61
2022/06/19 06:50:41;;;;;;;20.83;7.00;;;;;;;21.76;100.00;101086.81;4972156;29;20031;-60
2022/06/19 06:53:07;;;;;;;;;;;;;;;22.32;100.00;101120.78;4972257;29;20090;-60
2022/06/19 06:55:38;;;;;;;16.33;4.73;;;;;;;21.15;100.00;101161.47;4971953;28;19922;-60
2022/06/19 06:58:03;;;;;;;14.27;2.50;;;;;;;20.54;100.00;101193.19;4973720;28;20063;-60
2022/06/19 07:00:29;;;;;;;11.27;2.60;;;;;;;20.63;100.00;101201.72;4972135;29;20038;-60
2022/06/19 07:02:54;;;;;;;11.83;2.63;;;;;;;20.68;100.00;101188.19;4971789;28;20089;-61
2022/06/19 07:05:20;;;;;;;19.52;5.07;;;;;;;21.18;100.00;101169.94;4972167;28;20356;-61
2022/06/19 07:07:46;;;;;;;13.80;2.83;;;;;;;21.25;100.00;101137.09;4972840;28;20049;-60
2022/06/19 07:10:12;;;;;;;9.02;2.47;;;;;;;21.46;100.00;101120.91;4971797;28;20066;-60
2022/06/19 07:12:38;;;;;;;;;;;;;;;21.37;100.00;101126.03;4971773;29;20065;-60
2022/06/19 07:15:04;;;;;;;9.23;2.47;;;;;;;21.75;100.00;101121.38;4971495;29;19941;-60
2022/06/19 07:17:30;;;;;;;15.98;2.97;;;;;;;22.01;100.00;101128.84;4971690;28;20043;-60
2022/06/19 07:19:55;;;;;;;7.05;1.83;;;;;;;21.97;100.00;101142.16;4994694;28;20035;-60
2022/06/19 07:22:21;;;;;;;12.45;3.80;;;;;;;21.98;100.00;101164.78;4971323;29;20035;-60
2022/06/19 07:24:49;;;;;;;11.40;2.33;;;;;;;22.08;100.00;101167.53;4971485;29;20066;-60
2022/06/19 07:27:14;;;;;;;6.20;2.30;;;;;;;22.51;100.00;101186.56;4992454;28;20335;-61
2022/06/19 07:29:45;;;;;;;13.32;3.05;;;;;;;21.68;100.00;101188.84;4971464;29;20031;-60
2022/06/19 07:32:12;;;;;;;15.13;3.17;;;;;;;21.95;100.00;101171.56;4970802;29;20055;-60
2022/06/19 07:34:39;;;;;;;11.90;2.63;;;;;;;21.83;100.00;101146.47;4971410;29;20027;-60
2022/06/19 07:37:07;;;;;;;13.30;2.80;;;;;;;21.45;100.00;101146.47;4971197;29;20043;-60
2022/06/19 07:39:34;;;;;;;25.43;4.37;;;;;;;22.29;100.00;101181.25;4971329;28;20043;-60
2022/06/19 07:42:00;;;;;;;16.77;3.07;;;;;;;21.52;100.00;101206.09;4971205;29;20031;-60
2022/06/19 07:44:25;;;;;;;15.60;3.25;;;;;;;20.92;100.00;101231.41;4971180;29;20035;-60
2022/06/19 07:52:21;;;;;;;14.33;3.60;;;;;;;21.07;100.00;101233.44;4972550;28;20261;-60
2022/06/19 07:54:47;;;;;;;18.00;4.03;;;;;;;21.45;100.00;101215.31;4975173;28;20296;-59
2022/06/19 07:57:12;;;;;;;15.73;2.78;;;;;;;21.67;100.00;101170.88;4973775;28;20274;-60
2022/06/19 07:59:38;;;;;;;19.05;3.70;;;;;;;21.56;100.00;101128.31;4976723;28;20058;-61
2022/06/19 08:02:04;;;;;;;14.43;3.08;;;;;;;21.25;100.00;101066.38;4972611;28;20027;-61
2022/06/19 08:04:29;;;;;;;10.93;2.95;;;;;;;21.33;100.00;101046.84;4973055;28;20055;-61
2022/06/19 08:06:55;;;;;;;13.93;3.45;;;;;;;21.42;100.00;101033.56;4973472;28;20039;-60
2022/06/19 08:09:20;;;;;;;16.80;3.07;;;;;;;21.18;100.00;100997.78;4974030;28;20067;-60
2022/06/19 08:11:46;;;;;;;15.90;3.15;;;;;;;21.10;100.00;100979.25;4987405;28;20038;-60
2022/06/19 08:14:11;;;;;;;9.17;2.17;;;;;;;21.29;100.00;100975.03;4974944;28;21449;-60
2022/06/19 08:16:36;;;;;;;12.27;3.17;;;;;;;20.97;100.00;100959.59;4981168;28;20035;-60
2022/06/19 08:19:02;;;;;;;14.52;3.13;;;;;;;20.89;100.00;100951.94;4973266;29;20349;-60
2022/06/19 08:21:28;;;;;;;14.27;2.97;;;;;;;21.43;100.00;100963.63;4974908;28;20031;-60
2022/06/19 08:23:53;;;;;;;18.30;4.27;;;;;;;21.82;100.00;101031.31;4973325;28;20193;-60
2022/06/19 08:26:19;;;;;;;11.90;2.65;;;;;;;21.82;100.00;101084.94;4974603;28;20281;-60
2022/06/19 08:28:54;;;;;;;11.32;2.40;;;;;;;21.80;100.00;101111.59;4975316;28;20055;-60
2022/06/19 08:31:20;;;;;;;17.03;3.47;;;;;;;21.81;100.00;101160.34;4983397;28;20099;-60
2022/06/19 08:33:46;;;;;;;12.27;2.92;;;;;;;21.66;100.00;101220.94;4973421;28;20061;-60
2022/06/19 08:36:12;;;;;;;10.18;2.78;;;;;;;21.26;100.00;101219.50;4976636;28;20170;-60
2022/06/19 08:38:42;;;;;;;13.40;2.78;;;;;;;20.97;100.00;101195.31;4972018;28;20061;-60
2022/06/19 08:41:23;;;;;;;7.87;2.20;;;;;;;21.47;100.00;101174.25;4973466;28;20047;-60
2022/06/19 08:44:07;;;;;;;7.43;2.10;;;;;;;21.09;100.00;101165.22;4972516;28;20025;-60
2022/06/19 08:46:57;;;;;;;10.03;1.83;;;;;;;21.77;100.00;101153.78;4972927;29;20061;-53
2022/06/19 08:49:40;;;;;;;19.67;5.17;;;;;;;21.95;100.00;101138.09;4973520;28;20039;-50
2022/06/19 08:52:26;;;;;;;12.63;3.73;;;;;;;22.16;100.00;101139.81;4972591;28;20035;-50
2022/06/19 08:54:54;;;;;;;13.83;3.57;;;;;;;22.25;100.00;101136.56;4973402;28;20062;-51
2022/06/19 08:57:47;;;;;;;15.53;4.57;;;;;;;21.99;100.00;101133.75;4972147;28;20063;-51
2022/06/19 09:00:19;;;;;;;13.87;3.30;;;;;;;22.05;100.00;101136.25;4974898;28;20065;-49
2022/06/19 09:02:56;;;;;;;12.30;3.47;;;;;;;22.83;100.00;101136.47;4974901;28;20078;-54
2022/06/19 09:06:04;;;;;;;14.20;2.80;;;;;;;23.57;100.00;101113.50;4974903;28;20042;-52
2022/06/19 09:08:56;;;;;;;13.75;2.67;;;;;;;23.02;100.00;101090.38;4972546;29;20138;-49
2022/06/19 09:11:26;;;;;;;9.70;3.37;;;;;;;22.88;100.00;101062.84;5040151;28;20039;-52
2022/06/19 09:14:18;;;;;;;15.87;4.80;;;;;;;23.06;100.00;101047.00;5038862;28;20053;-52
2022/06/19 09:17:02;;;;;;;13.67;4.23;;;;;;;23.23;100.00;101018.63;4972463;28;20035;-50
2022/06/19 09:19:44;;;;;;;19.77;4.03;;;;;;;23.41;100.00;101003.59;4972849;28;20112;-59
2022/06/19 09:22:43;;;;;;;44.50;18.43;;;;;;;23.57;100.00;101010.63;4972475;28;20046;-61
2022/06/19 09:25:22;;;;;;;12.23;2.73;;;;;;;23.51;100.00;101014.44;4974480;28;20035;-53
2022/06/19 09:27:59;;;;;;;16.37;5.10;;;;;;;23.43;100.00;101013.13;4972869;28;20046;-52
2022/06/19 09:30:48;;;;;;;12.23;2.87;;;;;;;23.25;100.00;101022.72;4974132;28;20095;-49
2022/06/19 09:33:52;;;;;;;12.90;4.03;;;;;;;23.52;100.00;101010.63;4973844;28;20062;-51
2022/06/19 09:36:31;;;;;;;10.20;2.63;;;;;;;23.62;100.00;101010.59;4972191;28;20336;-53
2022/06/19 09:39:09;;;;;;;12.40;2.87;;;;;;;23.46;100.00;101006.28;4974450;28;20034;-55
2022/06/19 09:41:48;;;;;;;10.10;3.17;;;;;;;24.67;100.00;101027.19;4971162;29;20035;-51
2022/06/19 09:44:26;;;;;;;9.27;3.60;;;;;;;24.06;100.00;101051.94;4974067;28;20062;-54
2022/06/19 09:47:05;;;;;;;10.73;3.83;;;;;;;24.24;100.00;101058.63;4974238;28;20027;-51
2022/06/19 09:49:46;;;;;;;9.83;2.63;;;;;;;24.72;100.00;101085.38;4970958;28;20050;-54
2022/06/19 09:52:17;;;;;;;8.30;2.47;;;;;;;24.84;100.00;101108.81;4972167;29;20038;-53
2022/06/19 09:54:50;;;;;;;7.53;1.87;;;;;;;24.54;100.00;101116.94;4974275;28;20122;-50
2022/06/19 09:57:28;;;;;;;10.37;3.60;;;;;;;24.68;100.00;101122.59;4974484;28;20039;-53
2022/06/19 10:00:17;;;;;;;13.03;5.40;;;;;;;24.55;100.00;101115.81;4973135;28;20036;-50
2022/06/19 10:02:52;;;;;;;13.87;3.57;;;;;;;24.71;100.00;101116.56;4970546;29;20093;-52
2022/06/19 10:05:33;;;;;;;11.83;2.67;;;;;;;24.73;100.00;101105.31;4970193;28;20050;-53
2022/06/19 10:08:31;;;;;;;14.03;3.17;;;;;;;24.43;100.00;101098.97;4971204;28;20023;-52
2022/06/19 10:11:07;;;;;;;22.53;8.07;;;;;;;24.87;100.00;101102.78;4974027;28;20043;-50
2022/06/19 10:13:55;;;;;;;12.10;3.03;;;;;;;25.90;100.00;101090.81;4972095;28;20027;-54
2022/06/19 10:16:29;;;;;;;6.87;3.00;;;;;;;25.27;100.00;101083.56;4971392;29;20046;-48
2022/06/19 10:18:56;;;;;;;16.63;5.30;;;;;;;26.12;100.00;101081.22;4972297;28;20055;-51
2022/06/19 10:24:33;;;;;;;14.07;4.07;;;;;;;26.30;100.00;101090.56;4972364;29;20043;-53
2022/06/19 10:27:11;;;;;;;12.00;3.17;;;;;;;27.36;96.67;101074.84;4971698;28;20031;-52
2022/06/19 10:30:07;;;;;;;13.33;4.43;;;;;;;27.93;89.48;101066.31;4971026;29;20047;-50
2022/06/19 10:32:35;;;;;;;16.60;3.80;;;;;;;29.60;77.48;101072.94;4970045;29;20074;-54
2022/06/19 10:35:09;;;;;;;14.47;4.57;;;;;;;29.84;74.07;101081.91;4972029;29;20091;-50
2022/06/19 10:37:46;;;;;;;31.90;13.93;;;;;;;29.74;71.87;101083.00;4972388;28;20119;-54
2022/06/19 10:40:24;;;;;;;10.73;3.10;;;;;;;29.39;71.89;101072.66;4972598;28;20039;-52
2022/06/19 10:43:05;;;;;;;12.45;3.33;;;;;;;28.93;78.36;101069.22;4971515;29;20039;-51
2022/06/19 10:45:35;;;;;;;8.73;2.92;;;;;;;28.34;79.99;101050.84;4969613;28;20095;-50
2022/06/19 10:48:14;;;;;;;9.05;2.72;;;;;;;27.74;86.70;101050.75;4970312;28;20091;-52
2022/06/19 10:50:45;;;;;;;13.80;3.03;;;;;;;27.60;90.18;101037.03;4971726;29;20051;-52
2022/06/19 10:53:34;;;;;;;16.13;3.00;;;;;;;27.11;89.10;101033.06;4973627;28;20042;-53
2022/06/19 10:56:30;;;;;;;11.53;2.50;;;;;;;27.25;92.79;101039.38;4971037;29;20057;-51
2022/06/19 10:58:56;;;;;;;18.53;2.73;;;;;;;26.81;97.17;101043.44;4970508;28;20050;-51
2022/06/19 11:04:23;;;;;;;7.88;2.10;;;;;;;26.40;99.87;101064.09;4971592;29;20035;-53
2022/06/19 11:07:16;;;;;;;11.33;2.40;;;;;;;26.27;100.00;101073.88;4972044;28;20047;-53
2022/06/19 11:09:50;;;;;;;11.97;2.20;;;;;;;26.28;100.00;101081.00;4972869;28;20047;-50
2022/06/19 11:12:39;;;;;;;9.73;2.43;;;;;;;25.88;100.00;101087.53;4971421;28;20039;-49
2022/06/19 11:15:19;;;;;;;8.17;2.70;;;;;;;25.77;100.00;101102.47;4973231;28;20036;-50
2022/06/19 11:17:44;;;;;;;15.47;5.60;;;;;;;25.80;100.00;101125.72;4971200;29;20027;-55
2022/06/19 11:20:17;;;;;;;13.95;2.58;;;;;;;25.76;100.00;101128.22;4971409;29;20063;-54
2022/06/19 11:22:49;;;;;;;12.83;2.47;;;;;;;25.34;100.00;101108.66;4971128;29;20036;-55
2022/06/19 11:25:21;;;;;;;13.73;3.47;;;;;;;25.28;100.00;101096.13;4971180;29;20039;-51
2022/06/19 11:27:52;;;;;;;25.73;7.73;;;;;;;25.05;100.00;101082.13;4971803;29;20035;-54
2022/06/19 11:30:45;;;;;;;15.40;4.30;;;;;;;25.56;100.00;101072.56;4974901;29;20074;-53
2022/06/19 11:33:21;;;;;;;11.70;2.83;;;;;;;25.60;100.00;101098.28;4974851;28;20051;-55
2022/06/19 11:35:56;;;;;;;20.30;7.70;;;;;;;25.54;100.00;101095.91;4974140;28;20031;-53
2022/06/19 11:38:42;;;;;;;12.07;4.47;;;;;;;25.66;100.00;101095.50;4973232;29;20065;-51
2022/06/19 11:41:22;;;;;;;11.17;3.30;;;;;;;25.65;100.00;101094.66;4974581;29;20045;-54
2022/06/19 11:44:20;;;;;;;14.73;3.87;;;;;;;26.06;100.00;101115.25;4972825;29;20066;-53
2022/06/19 11:46:51;;;;;;;10.27;3.53;;;;;;;26.56;99.61;101112.13;4972288;29;20047;-54
2022/06/19 11:49:27;;;;;;;15.33;3.30;;;;;;;26.83;98.47;101109.78;4974194;29;20100;-54
2022/06/19 11:51:55;;;;;;;12.25;3.05;;;;;;;27.81;92.81;101099.00;4974311;29;20065;-55